Time;durP1;ratioP1;P1;durP2;ratioP2;P2;SDS_P1;SDS_P2;PMS_P1;PMS_P2;Temp;Humidity;BMP_temperature;BMP_pressure;BME280_temperature;BME280_humidity;BME280_pressure;Samples;Min_cycle;Max_cycle;Signal;HPM_P1;HPM_P2
2023/03/22 00:00:44;;;;;;;9.20;8.90;;;10.50;99.90;;;;;;6354161;22;20234;-84
2023/03/22 00:03:12;;;;;;;9.20;8.90;;;10.40;99.90;;;;;;6306285;22;20253;-82
2023/03/22 00:05:45;;;;;;;9.23;8.93;;;10.30;99.90;;;;;;6269303;22;20248;-82
2023/03/22 00:08:14;;;;;;;9.50;9.20;;;10.30;99.90;;;;;;6281366;22;20226;-82
2023/03/22 00:10:43;;;;;;;8.90;8.60;;;10.30;99.90;;;;;;6268688;22;20273;-82
2023/03/22 00:13:14;;;;;;;9.07;8.77;;;10.30;99.90;;;;;;6268152;22;20198;-83
2023/03/22 00:15:47;;;;;;;9.37;9.07;;;10.30;99.90;;;;;;6266610;22;20201;-81
2023/03/22 00:20:59;;;;;;;9.40;9.10;;;10.30;99.90;;;;;;6264922;22;20196;-82
2023/03/22 00:23:28;;;;;;;9.20;8.90;;;10.20;99.90;;;;;;6265668;22;20198;-82
2023/03/22 00:25:57;;;;;;;8.70;8.50;;;10.30;99.90;;;;;;6266086;22;20210;-82
2023/03/22 00:28:37;;;;;;;9.07;8.77;;;10.30;99.90;;;;;;6266081;22;20201;-82
2023/03/22 00:31:07;;;;;;;9.27;8.97;;;10.40;99.90;;;;;;6265702;22;20281;-82
2023/03/22 00:33:37;;;;;;;8.93;8.63;;;10.40;99.90;;;;;;6265507;22;20206;-81
2023/03/22 00:36:13;;;;;;;9.10;8.80;;;10.40;99.90;;;;;;6265275;22;20201;-83
2023/03/22 00:38:42;;;;;;;9.20;8.90;;;10.40;99.90;;;;;;6266383;22;20251;-82
2023/03/22 00:41:12;;;;;;;9.10;8.80;;;10.40;99.90;;;;;;6266996;22;20202;-82
2023/03/22 00:43:51;;;;;;;9.30;9.00;;;10.40;99.90;;;;;;6263266;22;20206;-82
2023/03/22 00:46:21;;;;;;;9.27;8.97;;;10.40;99.90;;;;;;6263605;22;20213;-83
2023/03/22 00:48:49;;;;;;;9.40;9.10;;;10.40;99.90;;;;;;6264665;22;20190;-82
2023/03/22 00:51:18;;;;;;;9.13;8.83;;;10.30;99.90;;;;;;6264337;22;20190;-83
2023/03/22 00:53:48;;;;;;;9.03;8.73;;;10.30;99.90;;;;;;6264450;22;20263;-82
2023/03/22 00:56:17;;;;;;;9.40;9.10;;;10.30;99.90;;;;;;6264236;22;20206;-82
2023/03/22 00:58:49;;;;;;;9.10;8.80;;;10.30;99.90;;;;;;6264384;22;20224;-82
2023/03/22 01:01:17;;;;;;;9.17;8.87;;;10.30;99.90;;;;;;6264743;22;20221;-82
2023/03/22 01:03:48;;;;;;;9.13;8.83;;;10.20;99.90;;;;;;6284794;22;20205;-82
2023/03/22 01:06:25;;;;;;;9.07;8.77;;;10.10;99.90;;;;;;6295424;22;20245;-82
2023/03/22 01:08:53;;;;;;;9.10;8.80;;;9.90;99.90;;;;;;6295814;22;20194;-82
2023/03/22 01:11:22;;;;;;;9.10;8.80;;;9.90;99.90;;;;;;6295657;22;20202;-82
2023/03/22 01:19:43;;;;;;;9.17;8.87;;;9.90;99.90;;;;;;6297666;22;20203;-82
2023/03/22 01:22:12;;;;;;;9.20;8.90;;;9.90;99.90;;;;;;6295139;22;20268;-83
2023/03/22 01:24:42;;;;;;;9.27;8.97;;;9.80;99.90;;;;;;6294581;22;20190;-82
2023/03/22 01:27:11;;;;;;;9.10;8.80;;;9.80;99.90;;;;;;6295174;22;20197;-83
2023/03/22 01:29:45;;;;;;;9.20;8.90;;;9.80;99.90;;;;;;6294821;22;20201;-83
2023/03/22 01:32:13;;;;;;;9.37;9.07;;;9.80;99.90;;;;;;6296070;22;20209;-83
2023/03/22 01:34:42;;;;;;;9.30;9.00;;;9.80;99.90;;;;;;6292875;22;20256;-83
2023/03/22 01:37:10;;;;;;;9.37;9.07;;;9.80;99.90;;;;;;6292613;22;20280;-83
2023/03/22 01:39:39;;;;;;;9.30;9.00;;;9.80;99.90;;;;;;6293914;22;20193;-83
2023/03/22 01:42:09;;;;;;;9.60;9.30;;;9.80;99.90;;;;;;6293809;22;20248;-83
2023/03/22 01:44:38;;;;;;;9.10;8.80;;;9.70;99.90;;;;;;6294225;22;20225;-83
2023/03/22 01:47:16;;;;;;;9.10;8.80;;;9.60;99.90;;;;;;6294517;22;20201;-83
2023/03/22 01:49:45;;;;;;;9.00;8.70;;;9.60;99.90;;;;;;6295252;22;20189;-83
2023/03/22 01:52:15;;;;;;;9.07;8.77;;;9.50;99.90;;;;;;6294721;22;20202;-83
2023/03/22 01:54:47;;;;;;;9.30;9.00;;;9.50;99.90;;;;;;6306099;22;20197;-83
2023/03/22 01:57:15;;;;;;;9.10;8.80;;;9.40;99.90;;;;;;6310647;22;20185;-83
2023/03/22 01:59:44;;;;;;;9.20;8.90;;;9.30;99.90;;;;;;6304586;22;20198;-83
2023/03/22 02:02:23;;;;;;;9.43;9.13;;;9.20;99.90;;;;;;6299164;22;20217;-83
2023/03/22 02:04:56;;;;;;;9.10;8.80;;;9.20;99.90;;;;;;6297399;22;20199;-83
2023/03/22 02:07:32;;;;;;;9.40;9.10;;;9.10;99.90;;;;;;6296785;22;20249;-83
2023/03/22 02:10:00;;;;;;;9.50;9.20;;;9.10;99.90;;;;;;6296593;22;20190;-83
2023/03/22 02:12:42;;;;;;;9.27;8.97;;;9.00;99.90;;;;;;6296387;22;20201;-82
2023/03/22 02:15:18;;;;;;;9.50;9.20;;;9.00;99.90;;;;;;6295949;22;20190;-83
2023/03/22 02:18:05;;;;;;;9.40;9.10;;;9.00;99.90;;;;;;6295328;22;20186;-83
2023/03/22 02:21:27;;;;;;;9.40;9.10;;;8.90;99.90;;;;;;6303776;22;20186;-83
2023/03/22 02:24:40;;;;;;;9.30;9.00;;;8.90;99.90;;;;;;6300701;22;20257;-83
2023/03/22 02:27:26;;;;;;;9.60;9.30;;;8.90;99.90;;;;;;6297739;22;20216;-83
2023/03/22 02:30:14;;;;;;;9.33;9.03;;;8.90;99.90;;;;;;6296411;22;21143;-84
2023/03/22 02:33:36;;;;;;;9.30;9.00;;;8.90;99.90;;;;;;6296600;22;20267;-83
2023/03/22 02:36:29;;;;;;;9.37;9.07;;;8.80;99.90;;;;;;6171007;23;20196;-83
2023/03/22 02:39:36;;;;;;;9.10;8.80;;;8.80;99.90;;;;;;6295460;22;20193;-83
2023/03/22 02:42:33;;;;;;;9.10;8.80;;;8.70;99.90;;;;;;6295444;22;20197;-83
2023/03/22 02:45:10;;;;;;;9.30;9.00;;;8.60;99.90;;;;;;6295686;22;20194;-83
2023/03/22 02:47:42;;;;;;;9.17;8.87;;;8.50;99.90;;;;;;6295667;22;20253;-83
2023/03/22 02:50:19;;;;;;;9.20;8.90;;;8.50;99.90;;;;;;6295854;22;20193;-83
2023/03/22 02:52:58;;;;;;;9.30;9.00;;;8.40;99.90;;;;;;6294978;22;20201;-83
2023/03/22 02:55:34;;;;;;;9.30;9.00;;;8.40;99.90;;;;;;6295658;22;20217;-83
2023/03/22 02:58:13;;;;;;;9.00;8.70;;;8.30;99.90;;;;;;6295295;22;20193;-83
2023/03/22 03:00:43;;;;;;;9.20;8.90;;;8.30;99.90;;;;;;6294277;22;20280;-83
2023/03/22 03:03:17;;;;;;;9.30;9.00;;;8.20;99.90;;;;;;6294421;22;20213;-83
2023/03/22 03:05:50;;;;;;;9.20;8.90;;;8.20;99.90;;;;;;6294347;22;20202;-83
2023/03/22 03:08:20;;;;;;;9.23;8.93;;;8.20;99.90;;;;;;6294861;22;20886;-83
2023/03/22 03:11:00;;;;;;;9.40;9.10;;;8.20;99.90;;;;;;6294197;22;20262;-83
2023/03/22 03:13:27;;;;;;;9.40;9.10;;;8.20;99.90;;;;;;6295303;22;20228;-83
2023/03/22 03:16:00;;;;;;;9.27;8.97;;;8.10;99.90;;;;;;6292264;22;20193;-83
2023/03/22 03:18:43;;;;;;;9.27;8.97;;;8.10;99.90;;;;;;6292561;22;20197;-83
2023/03/22 03:21:28;;;;;;;9.30;9.00;;;8.00;99.90;;;;;;6294018;22;20216;-83
2023/03/22 03:24:18;;;;;;;9.33;9.03;;;7.90;99.90;;;;;;6304620;22;20202;-83
2023/03/22 03:26:56;;;;;;;9.30;9.00;;;7.80;99.90;;;;;;6305666;22;20181;-83
2023/03/22 03:29:34;;;;;;;9.30;9.00;;;7.80;99.90;;;;;;6310120;22;20205;-83
2023/03/22 03:32:13;;;;;;;9.40;9.10;;;7.80;99.90;;;;;;6310570;22;20211;-83
2023/03/22 03:34:51;;;;;;;9.40;9.10;;;7.70;99.90;;;;;;6309182;22;20193;-82
2023/03/22 03:37:23;;;;;;;9.40;9.10;;;7.70;99.90;;;;;;6308647;22;20236;-82
2023/03/22 03:39:58;;;;;;;9.00;8.70;;;7.70;99.90;;;;;;6308156;22;20201;-81
2023/03/22 03:42:37;;;;;;;9.30;9.00;;;7.60;99.90;;;;;;6308111;22;20232;-81
2023/03/22 03:45:07;;;;;;;9.17;8.87;;;7.70;99.90;;;;;;6309387;22;20220;-81
2023/03/22 03:47:36;;;;;;;9.20;8.90;;;7.70;99.90;;;;;;6306588;22;20197;-81
2023/03/22 03:50:05;;;;;;;9.00;8.70;;;7.70;99.90;;;;;;6308291;22;20197;-81
2023/03/22 03:52:35;;;;;;;9.10;8.80;;;7.70;99.90;;;;;;6308232;22;20228;-81
2023/03/22 03:55:04;;;;;;;9.03;8.73;;;7.70;99.90;;;;;;6308430;22;20198;-81
2023/03/22 03:57:36;;;;;;;8.93;8.63;;;7.80;99.90;;;;;;6305955;22;20198;-81
2023/03/22 04:00:05;;;;;;;9.17;8.87;;;7.70;99.90;;;;;;6300372;22;20198;-81
2023/03/22 04:02:33;;;;;;;9.20;8.90;;;7.70;99.90;;;;;;6298650;22;20193;-81
2023/03/22 04:05:03;;;;;;;9.03;8.73;;;7.70;99.90;;;;;;6293437;22;20200;-81
2023/03/22 04:07:34;;;;;;;8.83;8.53;;;7.70;99.90;;;;;;6293997;22;20205;-81
2023/03/22 04:10:02;;;;;;;8.90;8.60;;;7.60;99.90;;;;;;6297146;22;21028;-82
2023/03/22 04:12:31;;;;;;;8.60;8.40;;;7.50;99.90;;;;;;6307974;22;20194;-81
2023/03/22 04:15:03;;;;;;;9.00;8.70;;;7.50;99.90;;;;;;6311787;22;20202;-81
2023/03/22 04:17:31;;;;;;;9.00;8.70;;;7.50;99.90;;;;;;6304652;22;20189;-82
2023/03/22 04:20:04;;;;;;;9.20;8.90;;;7.40;99.90;;;;;;6299357;22;20228;-82
2023/03/22 04:22:37;;;;;;;9.20;8.90;;;7.40;99.90;;;;;;6298558;22;20202;-81
2023/03/22 04:25:10;;;;;;;9.50;9.20;;;7.30;99.90;;;;;;6298092;22;20221;-81
2023/03/22 04:27:39;;;;;;;9.20;8.90;;;7.20;99.90;;;;;;6300748;22;20194;-82
2023/03/22 04:30:17;;;;;;;9.20;8.90;;;7.20;99.90;;;;;;6311446;22;20174;-81
2023/03/22 04:32:46;;;;;;;9.40;9.10;;;7.20;99.90;;;;;;6303716;22;20227;-82
2023/03/22 04:35:14;;;;;;;9.40;9.10;;;7.10;99.90;;;;;;6297825;22;20204;-82
2023/03/22 04:37:44;;;;;;;9.47;9.17;;;7.10;99.90;;;;;;6296885;22;20198;-81
2023/03/22 04:40:15;;;;;;;9.40;9.10;;;7.10;99.90;;;;;;6296728;22;20186;-81
2023/03/22 04:42:44;;;;;;;9.30;9.00;;;7.10;99.90;;;;;;6295840;22;20202;-82
2023/03/22 04:47:59;;;;;;;9.30;9.00;;;7.10;99.90;;;;;;6295806;22;20213;-81
2023/03/22 04:50:27;;;;;;;9.20;8.90;;;7.00;99.90;;;;;;6297135;22;20201;-82
2023/03/22 04:52:57;;;;;;;9.10;8.80;;;7.00;99.90;;;;;;6296060;22;20281;-82
2023/03/22 04:55:26;;;;;;;9.10;8.80;;;6.90;99.90;;;;;;6297113;22;20216;-81
2023/03/22 04:57:57;;;;;;;8.80;8.50;;;6.90;99.90;;;;;;6298106;22;20295;-81
2023/03/22 05:00:29;;;;;;;9.30;9.00;;;6.90;99.90;;;;;;6298354;22;20185;-81
2023/03/22 05:02:57;;;;;;;9.10;8.80;;;6.90;99.90;;;;;;6297563;22;20228;-82
2023/03/22 05:05:25;;;;;;;9.00;8.70;;;6.80;99.90;;;;;;6298412;22;20201;-81
2023/03/22 05:07:55;;;;;;;9.20;8.90;;;6.80;99.90;;;;;;6297694;22;20202;-81
2023/03/22 05:10:23;;;;;;;9.03;8.73;;;6.80;99.90;;;;;;6298070;22;20245;-82
2023/03/22 05:12:52;;;;;;;9.30;9.00;;;6.80;99.90;;;;;;6294858;22;20209;-83
2023/03/22 05:15:23;;;;;;;9.13;8.83;;;6.80;99.90;;;;;;6295608;22;20202;-81
2023/03/22 05:17:54;;;;;;;9.10;8.80;;;6.80;99.90;;;;;;6293751;22;20182;-82
2023/03/22 05:20:23;;;;;;;9.03;8.73;;;6.80;99.90;;;;;;6297318;22;20193;-82
2023/03/22 05:22:55;;;;;;;9.00;8.70;;;6.80;99.90;;;;;;6296939;22;20202;-82
2023/03/22 05:25:30;;;;;;;9.30;9.00;;;6.70;99.90;;;;;;6296957;22;20197;-82
2023/03/22 05:28:00;;;;;;;9.53;9.23;;;6.70;99.90;;;;;;6296528;22;20197;-82
2023/03/22 05:30:28;;;;;;;9.10;8.80;;;6.60;99.90;;;;;;6296577;22;20252;-82
2023/03/22 05:33:06;;;;;;;9.20;8.90;;;6.60;99.90;;;;;;6296758;22;20225;-82
2023/03/22 05:35:45;;;;;;;9.10;8.80;;;6.60;99.90;;;;;;6297753;22;20194;-82
2023/03/22 05:38:14;;;;;;;8.97;8.67;;;6.50;99.90;;;;;;6296168;22;20205;-82
2023/03/22 05:40:45;;;;;;;9.00;8.70;;;6.50;99.90;;;;;;6296526;22;20205;-82
2023/03/22 05:43:13;;;;;;;9.10;8.80;;;6.50;99.90;;;;;;6295105;22;20224;-82
2023/03/22 05:45:44;;;;;;;9.20;8.90;;;6.40;99.90;;;;;;6293252;22;20209;-81
2023/03/22 05:48:14;;;;;;;9.10;8.80;;;6.30;99.90;;;;;;6293144;22;20206;-82
2023/03/22 05:50:43;;;;;;;9.03;8.73;;;6.30;99.90;;;;;;6294802;22;20186;-82
2023/03/22 05:53:13;;;;;;;9.00;8.70;;;6.30;99.90;;;;;;6295363;22;20225;-81
2023/03/22 05:55:40;;;;;;;8.67;8.47;;;6.40;99.90;;;;;;6294512;22;20205;-82
2023/03/22 05:58:10;;;;;;;8.50;8.30;;;6.40;99.90;;;;;;6295656;22;20297;-82
2023/03/22 06:00:39;;;;;;;9.20;8.90;;;6.50;99.90;;;;;;6296096;22;20623;-81
2023/03/22 06:05:49;;;;;;;9.03;8.73;;;6.70;99.90;;;;;;6266547;22;20206;-83
2023/03/22 06:08:18;;;;;;;9.20;8.90;;;6.70;99.90;;;;;;6264895;22;20202;-85
2023/03/22 06:10:47;;;;;;;9.30;9.00;;;6.80;99.90;;;;;;6264718;22;20218;-83
2023/03/22 06:13:17;;;;;;;8.67;8.47;;;6.90;99.90;;;;;;6265153;22;20257;-86
2023/03/22 06:15:46;;;;;;;8.83;8.60;;;6.90;99.90;;;;;;6264603;22;20197;-83
2023/03/22 06:18:15;;;;;;;8.90;8.60;;;7.00;99.90;;;;;;6264883;22;20234;-83
2023/03/22 06:20:54;;;;;;;8.77;8.57;;;7.10;99.90;;;;;;6266506;22;20265;-84
2023/03/22 06:23:23;;;;;;;8.83;8.57;;;7.30;99.90;;;;;;6269464;22;20189;-84
2023/03/22 06:25:52;;;;;;;9.27;8.97;;;7.40;99.90;;;;;;6271894;22;20222;-84
2023/03/22 06:28:23;;;;;;;9.00;8.70;;;7.50;99.90;;;;;;6261627;22;20242;-84
2023/03/22 06:30:51;;;;;;;9.17;8.87;;;7.50;99.90;;;;;;6262071;22;20190;-84
2023/03/22 06:33:21;;;;;;;9.00;8.70;;;7.60;99.90;;;;;;6261943;22;20272;-83
2023/03/22 06:35:52;;;;;;;9.03;8.73;;;7.70;99.90;;;;;;6262304;22;20194;-83
2023/03/22 06:38:20;;;;;;;9.00;8.70;;;7.80;99.90;;;;;;6261865;22;20205;-84
2023/03/22 06:40:49;;;;;;;9.30;9.00;;;7.90;99.90;;;;;;6261894;22;20197;-84
2023/03/22 06:43:19;;;;;;;9.27;8.97;;;8.00;99.90;;;;;;6267089;22;20206;-84
2023/03/22 06:45:48;;;;;;;9.40;9.10;;;8.10;99.90;;;;;;6266358;22;20202;-83
2023/03/22 06:48:17;;;;;;;9.20;8.90;;;8.20;99.90;;;;;;6265707;22;20261;-84
2023/03/22 06:50:46;;;;;;;9.30;9.00;;;8.30;99.90;;;;;;6265454;22;20205;-83
2023/03/22 06:53:24;;;;;;;9.50;9.20;;;8.40;99.90;;;;;;6267016;22;20277;-84
2023/03/22 06:55:54;;;;;;;9.60;9.30;;;8.50;99.90;;;;;;6265542;22;20190;-83
2023/03/22 06:58:24;;;;;;;9.70;9.40;;;8.60;99.90;;;;;;6263248;22;20194;-83
2023/03/22 07:00:53;;;;;;;9.50;9.20;;;8.70;99.90;;;;;;6263463;22;20189;-84
2023/03/22 07:03:23;;;;;;;9.90;9.60;;;8.80;99.90;;;;;;6264705;22;20212;-84
2023/03/22 07:05:52;;;;;;;9.80;9.50;;;8.90;99.90;;;;;;6294415;22;20296;-83
2023/03/22 07:08:30;;;;;;;10.17;9.87;;;9.00;99.90;;;;;;6294790;22;20317;-83
2023/03/22 07:11:00;;;;;;;9.80;9.50;;;9.20;99.90;;;;;;6297382;22;20201;-83
2023/03/22 07:13:30;;;;;;;9.97;9.67;;;9.30;99.90;;;;;;6295648;22;20197;-84
2023/03/22 07:15:59;;;;;;;10.20;9.90;;;9.40;99.90;;;;;;6294236;22;20248;-83
2023/03/22 07:18:28;;;;;;;10.30;10.00;;;9.50;99.90;;;;;;6294604;22;20194;-84
2023/03/22 07:20:58;;;;;;;10.53;10.23;;;9.60;99.90;;;;;;6294952;22;20213;-83
2023/03/22 07:23:29;;;;;;;10.40;10.10;;;9.70;99.90;;;;;;6295064;22;20248;-83
2023/03/22 07:25:58;;;;;;;10.60;10.30;;;9.80;99.90;;;;;;6295552;22;20284;-84
2023/03/22 07:28:26;;;;;;;10.70;10.40;;;10.00;99.90;;;;;;6294681;22;20202;-84
2023/03/22 07:31:04;;;;;;;10.73;10.43;;;10.10;99.90;;;;;;6295490;22;20208;-83
2023/03/22 07:33:33;;;;;;;10.90;10.60;;;10.20;99.90;;;;;;6295251;22;20209;-83
2023/03/22 07:36:04;;;;;;;11.03;10.73;;;10.30;99.90;;;;;;6295605;22;20257;-83
2023/03/22 07:38:35;;;;;;;10.50;10.20;;;10.50;99.90;;;;;;6295428;22;20221;-84
2023/03/22 07:41:03;;;;;;;10.70;10.40;;;10.60;99.90;;;;;;6295464;22;20198;-84
2023/03/22 07:43:31;;;;;;;10.30;10.00;;;10.80;99.90;;;;;;6291318;22;20202;-87
2023/03/22 07:46:00;;;;;;;10.60;10.30;;;11.00;99.90;;;;;;6294583;22;20273;-87
2023/03/22 07:48:30;;;;;;;10.70;10.40;;;11.20;99.90;;;;;;6290516;22;20225;-87
2023/03/22 07:51:01;;;;;;;10.60;10.30;;;11.30;99.90;;;;;;6293723;22;20253;-84
2023/03/22 07:53:29;;;;;;;10.60;10.30;;;11.50;99.90;;;;;;6290968;22;20225;-87
2023/03/22 07:56:09;;;;;;;10.80;10.50;;;11.60;99.90;;;;;;6293683;22;20229;-84
2023/03/22 07:58:37;;;;;;;10.80;10.50;;;11.80;99.90;;;;;;6293948;22;20248;-84
2023/03/22 08:01:07;;;;;;;10.50;10.20;;;12.10;99.90;;;;;;6293620;22;20213;-84
2023/03/22 08:03:36;;;;;;;10.70;10.40;;;12.30;99.90;;;;;;6294454;22;20661;-84
2023/03/22 08:06:07;;;;;;;10.50;10.20;;;12.40;99.90;;;;;;6294115;22;20276;-83
2023/03/22 08:08:36;;;;;;;10.30;10.00;;;12.60;99.90;;;;;;6290380;22;20194;-87
2023/03/22 08:11:16;;;;;;;10.23;9.93;;;12.70;99.90;;;;;;6303307;22;20193;-83
2023/03/22 08:13:44;;;;;;;9.90;9.60;;;12.80;99.90;;;;;;6303760;22;20197;-84
2023/03/22 08:16:13;;;;;;;10.20;9.90;;;13.00;99.90;;;;;;6297533;22;20205;-85
2023/03/22 08:18:44;;;;;;;10.40;10.10;;;13.00;99.90;;;;;;6294749;22;20220;-84
2023/03/22 08:21:12;;;;;;;9.93;9.63;;;13.10;99.90;;;;;;6295744;22;20197;-84
2023/03/22 08:23:41;;;;;;;10.50;10.20;;;13.20;99.90;;;;;;6294667;22;20233;-85
2023/03/22 08:26:23;;;;;;;10.50;10.20;;;13.30;99.90;;;;;;6294526;22;20277;-85
2023/03/22 08:28:50;;;;;;;10.30;10.00;;;13.40;99.90;;;;;;6294919;22;20292;-85
2023/03/22 08:31:19;;;;;;;10.27;9.97;;;13.40;99.90;;;;;;6294872;22;20206;-85
2023/03/22 08:33:49;;;;;;;9.67;9.37;;;13.50;99.90;;;;;;6295060;22;20231;-86
2023/03/22 08:36:21;;;;;;;9.80;9.50;;;13.70;99.90;;;;;;6295323;22;20202;-85
2023/03/22 08:38:49;;;;;;;9.60;9.30;;;13.90;99.90;;;;;;6297202;22;20206;-85
2023/03/22 08:41:18;;;;;;;9.80;9.50;;;13.90;99.90;;;;;;6299886;22;20209;-84
2023/03/22 08:43:46;;;;;;;9.73;9.43;;;14.00;99.90;;;;;;6299259;22;20205;-86
2023/03/22 08:46:15;;;;;;;9.95;9.65;;;14.20;99.90;;;;;;6299697;22;20285;-84
2023/03/22 08:48:49;;;;;;;9.63;9.33;;;14.30;99.90;;;;;;6309704;22;20220;-86
2023/03/22 08:51:17;;;;;;;9.80;9.50;;;14.50;99.90;;;;;;6308725;22;20194;-82
2023/03/22 08:53:45;;;;;;;9.80;9.50;;;14.60;99.90;;;;;;6308188;22;20202;-81
2023/03/22 08:56:15;;;;;;;10.48;10.18;;;14.70;99.90;;;;;;6310642;22;20201;-81
2023/03/22 08:58:54;;;;;;;10.60;10.30;;;14.80;99.90;;;;;;6311793;22;20200;-81
2023/03/22 09:01:22;;;;;;;10.10;9.80;;;15.00;99.90;;;;;;6311839;22;20205;-80
2023/03/22 09:03:50;;;;;;;10.35;10.05;;;15.10;99.90;;;;;;6310253;22;20198;-81
2023/03/22 09:06:19;;;;;;;10.15;9.85;;;15.00;99.90;;;;;;6311164;22;20185;-81
2023/03/22 09:08:51;;;;;;;10.50;10.20;;;15.00;99.90;;;;;;6310542;22;20198;-80
2023/03/22 09:11:19;;;;;;;10.30;10.00;;;15.00;99.90;;;;;;6312525;22;20181;-80
2023/03/22 09:13:51;;;;;;;10.43;10.13;;;15.10;99.90;;;;;;6312524;22;20178;-81
2023/03/22 09:16:19;;;;;;;10.40;10.10;;;15.20;99.90;;;;;;6311563;22;20193;-79
2023/03/22 09:18:47;;;;;;;10.30;10.00;;;15.30;99.90;;;;;;6310825;22;20181;-81
2023/03/22 09:21:17;;;;;;;10.10;9.80;;;15.30;99.90;;;;;;6310995;22;20193;-81
2023/03/22 09:23:46;;;;;;;10.20;9.90;;;15.50;99.90;;;;;;6310128;22;20198;-80
2023/03/22 09:26:15;;;;;;;10.20;9.90;;;15.60;99.90;;;;;;6309520;22;20201;-82
2023/03/22 09:28:46;;;;;;;10.10;9.80;;;15.50;99.90;;;;;;6304650;22;20209;-81
2023/03/22 09:31:23;;;;;;;10.32;10.02;;;15.30;99.90;;;;;;6305321;22;20200;-82
2023/03/22 09:33:52;;;;;;;10.35;10.05;;;15.50;99.90;;;;;;6307118;22;20197;-81
2023/03/22 09:36:22;;;;;;;10.02;9.73;;;15.40;99.90;;;;;;6307620;22;20224;-84
2023/03/22 09:38:51;;;;;;;9.90;9.60;;;15.40;99.90;;;;;;6294514;22;20193;-83
2023/03/22 09:41:30;;;;;;;10.25;9.95;;;15.70;99.90;;;;;;6296297;22;20201;-81
2023/03/22 09:44:01;;;;;;;10.02;9.73;;;15.90;99.90;;;;;;6293631;22;20197;-83
2023/03/22 09:46:37;;;;;;;10.10;9.80;;;16.00;99.90;;;;;;6295171;22;20193;-85
2023/03/22 09:49:17;;;;;;;10.20;9.90;;;16.10;99.90;;;;;;6293817;22;20212;-84
2023/03/22 09:51:47;;;;;;;10.10;9.80;;;16.30;99.90;;;;;;6294195;22;20237;-85
2023/03/22 09:57:11;;;;;;;10.20;9.90;;;16.80;99.90;;;;;;6292125;22;20272;-86
2023/03/22 09:59:50;;;;;;;10.25;9.95;;;16.80;99.90;;;;;;6291196;22;20197;-86
2023/03/22 10:02:54;;;;;;;10.18;9.88;;;16.90;99.90;;;;;;6291076;22;20193;-86
2023/03/22 10:05:34;;;;;;;9.85;9.55;;;16.90;99.90;;;;;;6290066;22;20288;-87
2023/03/22 10:08:29;;;;;;;10.05;9.75;;;16.90;99.90;;;;;;6291234;22;20189;-87
2023/03/22 10:10:58;;;;;;;10.00;9.70;;;17.00;99.90;;;;;;6290679;22;20194;-87
2023/03/22 10:13:36;;;;;;;10.07;9.77;;;16.90;99.90;;;;;;6290663;22;20201;-88
2023/03/22 10:16:08;;;;;;;10.13;9.82;;;16.80;99.90;;;;;;6291654;22;20189;-87
2023/03/22 10:18:46;;;;;;;10.23;9.93;;;16.90;99.90;;;;;;6290946;22;20285;-87
2023/03/22 10:21:15;;;;;;;10.07;9.77;;;16.90;99.90;;;;;;6290607;22;20190;-85
2023/03/22 10:23:52;;;;;;;9.98;9.68;;;16.80;99.90;;;;;;6292577;22;20225;-84
2023/03/22 10:26:31;;;;;;;10.13;9.82;;;16.80;99.90;;;;;;6292924;22;20248;-85
2023/03/22 10:29:11;;;;;;;10.30;10.00;;;17.00;99.90;;;;;;6306937;22;20186;-86
2023/03/22 10:31:47;;;;;;;10.13;9.82;;;17.20;99.90;;;;;;6301115;22;20236;-84
2023/03/22 10:34:26;;;;;;;10.02;9.73;;;17.30;99.90;;;;;;6295354;22;20231;-84
2023/03/22 10:36:55;;;;;;;10.18;9.88;;;17.20;99.90;;;;;;6294990;22;20189;-84
2023/03/22 10:39:33;;;;;;;10.10;9.80;;;17.30;99.90;;;;;;6295338;22;20189;-85
2023/03/22 10:42:04;;;;;;;10.07;9.77;;;17.70;99.90;;;;;;6294308;22;20189;-84
2023/03/22 10:44:40;;;;;;;10.10;9.80;;;17.80;99.90;;;;;;6293981;22;20206;-83
2023/03/22 10:47:10;;;;;;;9.80;9.50;;;17.80;99.90;;;;;;6293793;22;20216;-84
2023/03/22 10:49:48;;;;;;;9.90;9.60;;;18.00;99.90;;;;;;6292778;22;20284;-84
2023/03/22 10:52:35;;;;;;;9.82;9.52;;;18.20;99.90;;;;;;6293313;22;20204;-84
2023/03/22 10:55:05;;;;;;;9.90;9.60;;;18.40;99.90;;;;;;6292315;22;20211;-85
2023/03/22 10:57:33;;;;;;;9.80;9.50;;;18.60;99.90;;;;;;6290916;22;20213;-83
2023/03/22 11:00:06;;;;;;;9.70;9.40;;;18.40;99.90;;;;;;6288681;22;20249;-85
2023/03/22 11:02:34;;;;;;;10.20;9.90;;;18.30;99.90;;;;;;6292242;22;20212;-86
2023/03/22 11:05:11;;;;;;;10.18;9.88;;;18.60;99.90;;;;;;6292206;22;20200;-85
2023/03/22 11:07:49;;;;;;;9.80;9.50;;;18.90;99.90;;;;;;6291988;22;20248;-86
2023/03/22 11:10:27;;;;;;;10.10;9.80;;;19.10;99.90;;;;;;6291465;22;20247;-84
2023/03/22 11:13:14;;;;;;;9.90;9.60;;;19.10;99.90;;;;;;6294612;22;20197;-86
2023/03/22 11:15:52;;;;;;;10.00;9.70;;;19.20;99.90;;;;;;6292104;22;20216;-86
2023/03/22 11:18:22;;;;;;;10.00;9.70;;;19.40;99.90;;;;;;6293713;22;20185;-86
2023/03/22 11:21:00;;;;;;;9.95;9.65;;;19.70;99.90;;;;;;6290761;22;20266;-87
2023/03/22 11:23:32;;;;;;;10.18;9.88;;;19.80;99.90;;;;;;6290699;22;20348;-86
2023/03/22 11:26:08;;;;;;;10.02;9.73;;;19.70;99.90;;;;;;6292141;22;20248;-84
2023/03/22 11:28:46;;;;;;;9.80;9.50;;;19.70;99.90;;;;;;6290555;22;20189;-86
2023/03/22 11:31:16;;;;;;;10.07;9.77;;;19.50;99.90;;;;;;6291430;22;20222;-86
2023/03/22 11:33:57;;;;;;;10.15;9.85;;;19.40;99.90;;;;;;6290714;22;20213;-87
2023/03/22 11:36:32;;;;;;;10.15;9.85;;;19.50;99.90;;;;;;6291409;22;20213;-87
2023/03/22 11:39:02;;;;;;;9.85;9.55;;;19.50;99.90;;;;;;6291268;22;20193;-85
2023/03/22 11:41:40;;;;;;;9.80;9.50;;;19.40;99.90;;;;;;6292912;22;20189;-85
2023/03/22 11:44:20;;;;;;;9.68;9.38;;;19.20;99.90;;;;;;6292027;22;20249;-85
2023/03/22 11:46:57;;;;;;;9.95;9.65;;;19.40;99.90;;;;;;6292770;22;20190;-84
2023/03/22 11:49:36;;;;;;;9.60;9.30;;;19.80;99.90;;;;;;6294529;22;20207;-84
2023/03/22 11:52:14;;;;;;;9.63;9.32;;;20.00;99.90;;;;;;6301561;22;20197;-85
2023/03/22 11:54:44;;;;;;;9.60;9.30;;;20.20;99.90;;;;;;6297502;22;20193;-86
2023/03/22 11:57:21;;;;;;;9.70;9.40;;;20.40;99.90;;;;;;6293895;22;20193;-82
2023/03/22 11:59:59;;;;;;;10.23;9.93;;;20.40;99.90;;;;;;6293037;22;20213;-84
2023/03/22 12:02:30;;;;;;;9.73;9.43;;;20.60;99.90;;;;;;6292563;22;20219;-83
2023/03/22 12:05:11;;;;;;;9.68;9.38;;;20.60;99.90;;;;;;6292449;22;20221;-83
2023/03/22 12:07:46;;;;;;;9.35;9.05;;;20.60;99.90;;;;;;6293187;22;20206;-83
2023/03/22 12:13:06;;;;;;;9.43;9.13;;;20.40;99.90;;;;;;6290973;22;20267;-81
2023/03/22 12:15:46;;;;;;;9.52;9.23;;;20.40;99.90;;;;;;6291474;22;20244;-82
2023/03/22 12:18:22;;;;;;;9.40;9.10;;;20.40;99.90;;;;;;6293180;22;20212;-80
2023/03/22 12:20:57;;;;;;;9.40;9.10;;;20.20;99.90;;;;;;6291666;22;20247;-81
2023/03/22 12:23:35;;;;;;;9.48;9.18;;;19.80;99.90;;;;;;6290556;22;20197;-80
2023/03/22 12:26:07;;;;;;;9.50;9.20;;;19.60;99.90;;;;;;6291024;22;20224;-81
2023/03/22 12:28:43;;;;;;;9.80;9.50;;;19.80;99.90;;;;;;6290951;22;20248;-80
2023/03/22 12:31:25;;;;;;;9.90;9.60;;;19.80;99.90;;;;;;6291113;22;20249;-80
2023/03/22 12:33:59;;;;;;;9.77;9.48;;;19.90;99.90;;;;;;6290268;22;20205;-81
2023/03/22 12:36:38;;;;;;;9.73;9.43;;;19.90;99.90;;;;;;6291056;22;20212;-80
2023/03/22 12:39:24;;;;;;;9.77;9.48;;;20.00;99.90;;;;;;6290750;22;20260;-80
2023/03/22 12:42:06;;;;;;;10.20;9.90;;;20.00;99.90;;;;;;6299443;22;20186;-80
2023/03/22 12:44:42;;;;;;;10.05;9.75;;;19.90;99.90;;;;;;6309409;22;20182;-80
2023/03/22 12:47:20;;;;;;;9.90;9.60;;;20.00;99.90;;;;;;6293396;22;20209;-80
2023/03/22 12:49:59;;;;;;;9.95;9.65;;;20.10;99.90;;;;;;6292193;22;20272;-80
2023/03/22 12:52:36;;;;;;;10.00;9.70;;;20.20;99.90;;;;;;6292315;22;20189;-81
2023/03/22 12:55:24;;;;;;;9.75;9.45;;;20.20;99.90;;;;;;6296198;22;20223;-81
2023/03/22 12:57:53;;;;;;;9.95;9.65;;;20.10;99.90;;;;;;6293522;22;20284;-81
2023/03/22 13:00:30;;;;;;;9.68;9.38;;;19.90;99.90;;;;;;6293113;22;20197;-81
2023/03/22 13:03:03;;;;;;;9.90;9.60;;;19.70;99.90;;;;;;6292613;22;20186;-80
2023/03/22 13:05:35;;;;;;;9.80;9.50;;;19.70;99.90;;;;;;6295970;22;20218;-80
2023/03/22 13:08:09;;;;;;;9.57;9.27;;;19.80;99.90;;;;;;6311868;22;20186;-80
2023/03/22 13:11:22;;;;;;;9.50;9.20;;;20.10;99.90;;;;;;6312128;22;20182;-80
2023/03/22 13:13:50;;;;;;;9.40;9.10;;;20.40;99.90;;;;;;6296132;22;20193;-79
2023/03/22 13:16:29;;;;;;;9.40;9.10;;;20.60;99.90;;;;;;6293014;22;20225;-80
2023/03/22 13:19:18;;;;;;;9.50;9.20;;;20.20;99.90;;;;;;6291607;22;20201;-80
2023/03/22 13:21:55;;;;;;;9.65;9.35;;;19.80;99.90;;;;;;6292482;22;20232;-80
2023/03/22 13:24:25;;;;;;;9.50;9.20;;;19.60;99.90;;;;;;6291160;22;20231;-80
2023/03/22 13:27:02;;;;;;;9.40;9.10;;;19.70;99.90;;;;;;6291004;22;20215;-80
2023/03/22 13:29:40;;;;;;;9.60;9.30;;;19.80;99.90;;;;;;6290737;22;20280;-81
2023/03/22 13:32:29;;;;;;;9.40;9.10;;;19.70;99.90;;;;;;6290068;22;20273;-79
2023/03/22 13:34:57;;;;;;;9.93;9.63;;;19.60;99.90;;;;;;6288217;22;20218;-80
2023/03/22 13:37:35;;;;;;;9.73;9.43;;;19.80;99.90;;;;;;6290095;22;20257;-79
2023/03/22 13:40:13;;;;;;;9.43;9.13;;;19.90;99.90;;;;;;6290898;22;20264;-80